sensor_id;sensor_type;location;lat;lon;timestamp;pressure;altitude;pressure_sealevel;temperature;humidity
34065;BME280;20339;49.754;20.158;2023-08-20T00:00:45;97116.20;;;20.67;83.78
34065;BME280;20339;49.754;20.158;2023-08-20T00:03:35;97114.63;;;20.64;83.66
34065;BME280;20339;49.754;20.158;2023-08-20T00:06:08;97113.70;;;20.59;83.77
34065;BME280;20339;49.754;20.158;2023-08-20T00:08:36;97113.30;;;20.57;83.73
34065;BME280;20339;49.754;20.158;2023-08-20T00:11:05;97116.52;;;20.58;83.93
34065;BME280;20339;49.754;20.158;2023-08-20T00:13:33;97113.20;;;20.61;84.03
34065;BME280;20339;49.754;20.158;2023-08-20T00:16:03;97110.73;;;20.60;84.14
34065;BME280;20339;49.754;20.158;2023-08-20T00:18:33;97106.89;;;20.61;84.09
34065;BME280;20339;49.754;20.158;2023-08-20T00:21:05;97103.62;;;20.61;84.39
34065;BME280;20339;49.754;20.158;2023-08-20T00:23:35;97099.77;;;20.61;84.28
34065;BME280;20339;49.754;20.158;2023-08-20T00:26:05;97099.22;;;20.61;84.37
34065;BME280;20339;49.754;20.158;2023-08-20T00:28:33;97096.84;;;20.59;84.36
34065;BME280;20339;49.754;20.158;2023-08-20T00:31:04;97094.62;;;20.54;84.45
34065;BME280;20339;49.754;20.158;2023-08-20T00:33:32;97096.04;;;20.50;85.01
34065;BME280;20339;49.754;20.158;2023-08-20T00:36:01;97095.71;;;20.49;84.97
34065;BME280;20339;49.754;20.158;2023-08-20T00:38:32;97094.67;;;20.48;85.27
34065;BME280;20339;49.754;20.158;2023-08-20T00:41:00;97096.85;;;20.47;85.09
34065;BME280;20339;49.754;20.158;2023-08-20T00:43:28;97096.83;;;20.43;85.44
34065;BME280;20339;49.754;20.158;2023-08-20T00:45:58;97094.52;;;20.40;85.70
34065;BME280;20339;49.754;20.158;2023-08-20T00:48:26;97093.40;;;20.40;85.90
34065;BME280;20339;49.754;20.158;2023-08-20T00:50:55;97094.05;;;20.40;86.04
34065;BME280;20339;49.754;20.158;2023-08-20T00:53:23;97095.22;;;20.39;86.02
34065;BME280;20339;49.754;20.158;2023-08-20T00:55:51;97091.35;;;20.36;86.09
34065;BME280;20339;49.754;20.158;2023-08-20T00:58:20;97092.39;;;20.33;86.31
34065;BME280;20339;49.754;20.158;2023-08-20T01:00:48;97097.86;;;20.31;86.40
34065;BME280;20339;49.754;20.158;2023-08-20T01:03:16;97099.77;;;20.28;86.40
34065;BME280;20339;49.754;20.158;2023-08-20T01:05:50;97099.48;;;20.25;86.65
34065;BME280;20339;49.754;20.158;2023-08-20T01:08:29;97099.29;;;20.22;86.82
34065;BME280;20339;49.754;20.158;2023-08-20T01:11:06;97101.45;;;20.18;87.20
34065;BME280;20339;49.754;20.158;2023-08-20T01:13:36;97097.77;;;20.15;87.64
34065;BME280;20339;49.754;20.158;2023-08-20T01:16:04;97101.28;;;20.15;87.60
34065;BME280;20339;49.754;20.158;2023-08-20T01:18:33;97096.41;;;20.14;87.85
34065;BME280;20339;49.754;20.158;2023-08-20T01:21:06;97095.58;;;20.14;87.75
34065;BME280;20339;49.754;20.158;2023-08-20T01:26:51;97092.54;;;20.15;88.38
34065;BME280;20339;49.754;20.158;2023-08-20T01:29:24;97093.20;;;20.17;88.63
34065;BME280;20339;49.754;20.158;2023-08-20T01:31:54;97095.48;;;20.16;88.69
34065;BME280;20339;49.754;20.158;2023-08-20T01:34:21;97092.39;;;20.18;88.81
34065;BME280;20339;49.754;20.158;2023-08-20T01:36:51;97097.48;;;20.19;88.89
34065;BME280;20339;49.754;20.158;2023-08-20T01:39:19;97100.52;;;20.20;88.92
34065;BME280;20339;49.754;20.158;2023-08-20T01:41:47;97100.35;;;20.20;88.82
34065;BME280;20339;49.754;20.158;2023-08-20T01:44:15;97101.52;;;20.15;88.78
34065;BME280;20339;49.754;20.158;2023-08-20T01:46:44;97104.33;;;20.10;88.91
34065;BME280;20339;49.754;20.158;2023-08-20T01:49:12;97099.98;;;20.05;88.94
34065;BME280;20339;49.754;20.158;2023-08-20T01:51:40;97099.17;;;20.00;89.04
34065;BME280;20339;49.754;20.158;2023-08-20T01:54:08;97093.45;;;19.95;89.10
34065;BME280;20339;49.754;20.158;2023-08-20T01:56:37;97099.70;;;19.90;89.24
34065;BME280;20339;49.754;20.158;2023-08-20T01:59:05;97098.75;;;19.83;89.38
34065;BME280;20339;49.754;20.158;2023-08-20T02:01:35;97100.37;;;19.77;89.54
34065;BME280;20339;49.754;20.158;2023-08-20T02:04:03;97099.60;;;19.75;89.80
34065;BME280;20339;49.754;20.158;2023-08-20T02:06:32;97099.00;;;19.75;89.93
34065;BME280;20339;49.754;20.158;2023-08-20T02:09:00;97100.39;;;19.76;90.09
34065;BME280;20339;49.754;20.158;2023-08-20T02:11:28;97101.09;;;19.76;90.18
34065;BME280;20339;49.754;20.158;2023-08-20T02:13:57;97105.58;;;19.75;90.11
34065;BME280;20339;49.754;20.158;2023-08-20T02:16:25;97104.38;;;19.75;90.39
34065;BME280;20339;49.754;20.158;2023-08-20T02:18:54;97108.01;;;19.78;90.81
34065;BME280;20339;49.754;20.158;2023-08-20T02:21:22;97109.52;;;19.79;90.76
34065;BME280;20339;49.754;20.158;2023-08-20T02:23:50;97106.17;;;19.80;90.93
34065;BME280;20339;49.754;20.158;2023-08-20T02:26:19;97108.27;;;19.83;91.03
34065;BME280;20339;49.754;20.158;2023-08-20T02:28:47;97100.08;;;19.87;91.16
34065;BME280;20339;49.754;20.158;2023-08-20T02:31:15;97100.47;;;19.90;91.24
34065;BME280;20339;49.754;20.158;2023-08-20T02:33:44;97099.17;;;19.92;91.16
34065;BME280;20339;49.754;20.158;2023-08-20T02:36:12;97103.60;;;19.93;91.20
34065;BME280;20339;49.754;20.158;2023-08-20T02:38:40;97101.16;;;19.94;91.16
34065;BME280;20339;49.754;20.158;2023-08-20T02:41:09;97105.02;;;19.93;91.25
34065;BME280;20339;49.754;20.158;2023-08-20T02:43:37;97096.81;;;19.91;91.31
34065;BME280;20339;49.754;20.158;2023-08-20T02:46:05;97103.27;;;19.88;91.37
34065;BME280;20339;49.754;20.158;2023-08-20T02:48:36;97094.79;;;19.88;91.47
34065;BME280;20339;49.754;20.158;2023-08-20T02:51:04;97094.85;;;19.87;91.54
34065;BME280;20339;49.754;20.158;2023-08-20T02:53:33;97094.27;;;19.88;91.62
34065;BME280;20339;49.754;20.158;2023-08-20T02:56:01;97091.42;;;19.88;91.65
34065;BME280;20339;49.754;20.158;2023-08-20T02:58:33;97091.97;;;19.91;91.76
34065;BME280;20339;49.754;20.158;2023-08-20T03:01:01;97090.58;;;19.95;91.81
34065;BME280;20339;49.754;20.158;2023-08-20T03:03:30;97091.30;;;19.95;91.75
34065;BME280;20339;49.754;20.158;2023-08-20T03:05:58;97090.78;;;19.96;91.65
34065;BME280;20339;49.754;20.158;2023-08-20T03:08:26;97098.63;;;19.98;91.76
34065;BME280;20339;49.754;20.158;2023-08-20T03:10:55;97098.70;;;19.99;91.78
34065;BME280;20339;49.754;20.158;2023-08-20T03:13:23;97102.41;;;20.02;91.72
34065;BME280;20339;49.754;20.158;2023-08-20T03:15:51;97102.29;;;20.05;91.76
34065;BME280;20339;49.754;20.158;2023-08-20T03:18:20;97104.13;;;20.05;91.70
34065;BME280;20339;49.754;20.158;2023-08-20T03:20:48;97103.36;;;20.03;91.63
34065;BME280;20339;49.754;20.158;2023-08-20T03:23:16;97100.08;;;20.01;91.64
34065;BME280;20339;49.754;20.158;2023-08-20T03:25:44;97100.88;;;20.00;91.49
34065;BME280;20339;49.754;20.158;2023-08-20T03:28:13;97102.88;;;20.00;91.62
34065;BME280;20339;49.754;20.158;2023-08-20T03:30:41;97105.91;;;19.99;91.45
34065;BME280;20339;49.754;20.158;2023-08-20T03:33:09;97106.30;;;19.99;91.52
34065;BME280;20339;49.754;20.158;2023-08-20T03:35:39;97108.73;;;20.00;91.64
34065;BME280;20339;49.754;20.158;2023-08-20T03:38:06;97106.54;;;20.01;91.56
34065;BME280;20339;49.754;20.158;2023-08-20T03:40:35;97112.85;;;20.04;91.71
34065;BME280;20339;49.754;20.158;2023-08-20T03:43:03;97114.29;;;20.05;91.81
34065;BME280;20339;49.754;20.158;2023-08-20T03:45:32;97111.70;;;20.08;91.63
34065;BME280;20339;49.754;20.158;2023-08-20T03:48:00;97116.69;;;20.10;91.55
34065;BME280;20339;49.754;20.158;2023-08-20T03:50:28;97115.04;;;20.12;91.62
34065;BME280;20339;49.754;20.158;2023-08-20T03:52:57;97114.61;;;20.15;91.42
34065;BME280;20339;49.754;20.158;2023-08-20T03:55:26;97117.45;;;20.17;91.33
34065;BME280;20339;49.754;20.158;2023-08-20T03:57:55;97118.16;;;20.19;91.17
34065;BME280;20339;49.754;20.158;2023-08-20T04:00:23;97120.80;;;20.19;91.10
34065;BME280;20339;49.754;20.158;2023-08-20T04:02:51;97122.96;;;20.17;91.13
34065;BME280;20339;49.754;20.158;2023-08-20T04:05:20;97124.13;;;20.17;91.08
34065;BME280;20339;49.754;20.158;2023-08-20T04:07:48;97125.80;;;20.19;91.09
34065;BME280;20339;49.754;20.158;2023-08-20T04:10:17;97126.83;;;20.17;90.97
34065;BME280;20339;49.754;20.158;2023-08-20T04:12:45;97126.90;;;20.15;90.98
34065;BME280;20339;49.754;20.158;2023-08-20T04:15:13;97126.98;;;20.15;90.98
34065;BME280;20339;49.754;20.158;2023-08-20T04:17:42;97122.89;;;20.14;91.04
34065;BME280;20339;49.754;20.158;2023-08-20T04:20:10;97125.36;;;20.13;90.95
34065;BME280;20339;49.754;20.158;2023-08-20T04:22:39;97122.27;;;20.14;91.08
34065;BME280;20339;49.754;20.158;2023-08-20T04:25:09;97128.94;;;20.14;91.01
34065;BME280;20339;49.754;20.158;2023-08-20T04:27:37;97128.65;;;20.14;90.97
34065;BME280;20339;49.754;20.158;2023-08-20T04:30:08;97128.56;;;20.17;91.02
34065;BME280;20339;49.754;20.158;2023-08-20T04:32:37;97129.36;;;20.24;91.20
34065;BME280;20339;49.754;20.158;2023-08-20T04:35:06;97129.15;;;20.36;91.44
34065;BME280;20339;49.754;20.158;2023-08-20T04:37:35;97130.90;;;20.63;91.32
34065;BME280;20339;49.754;20.158;2023-08-20T04:40:04;97126.89;;;20.91;90.91
34065;BME280;20339;49.754;20.158;2023-08-20T04:42:33;97132.08;;;21.14;90.46
34065;BME280;20339;49.754;20.158;2023-08-20T04:45:01;97134.61;;;21.38;89.95
34065;BME280;20339;49.754;20.158;2023-08-20T04:47:29;97135.61;;;21.65;89.69
34065;BME280;20339;49.754;20.158;2023-08-20T04:49:58;97136.98;;;21.91;89.08
34065;BME280;20339;49.754;20.158;2023-08-20T04:52:26;97139.96;;;22.17;88.38
34065;BME280;20339;49.754;20.158;2023-08-20T04:54:54;97141.34;;;22.37;87.28
34065;BME280;20339;49.754;20.158;2023-08-20T04:57:22;97136.27;;;22.54;86.98
34065;BME280;20339;49.754;20.158;2023-08-20T04:59:51;97143.89;;;22.80;86.57
34065;BME280;20339;49.754;20.158;2023-08-20T05:02:20;97140.95;;;23.11;86.17
34065;BME280;20339;49.754;20.158;2023-08-20T05:04:49;97141.71;;;23.34;85.42
34065;BME280;20339;49.754;20.158;2023-08-20T05:07:18;97146.69;;;23.59;84.65
34065;BME280;20339;49.754;20.158;2023-08-20T05:09:46;97143.99;;;23.85;83.59
34065;BME280;20339;49.754;20.158;2023-08-20T05:12:15;97142.89;;;24.00;82.77
34065;BME280;20339;49.754;20.158;2023-08-20T05:14:43;97142.29;;;24.29;82.16
34065;BME280;20339;49.754;20.158;2023-08-20T05:17:13;97144.15;;;24.50;81.06
34065;BME280;20339;49.754;20.158;2023-08-20T05:19:42;97144.70;;;24.65;79.71
34065;BME280;20339;49.754;20.158;2023-08-20T05:22:11;97143.35;;;24.72;78.80
34065;BME280;20339;49.754;20.158;2023-08-20T05:24:39;97140.88;;;24.77;77.78
34065;BME280;20339;49.754;20.158;2023-08-20T05:27:11;97142.98;;;24.81;77.30
34065;BME280;20339;49.754;20.158;2023-08-20T05:29:42;97146.23;;;24.93;76.70
34065;BME280;20339;49.754;20.158;2023-08-20T05:32:11;97145.20;;;24.86;76.17
34065;BME280;20339;49.754;20.158;2023-08-20T05:34:42;97148.95;;;24.92;75.92
34065;BME280;20339;49.754;20.158;2023-08-20T05:37:12;97146.33;;;24.93;75.23
34065;BME280;20339;49.754;20.158;2023-08-20T05:39:43;97144.39;;;25.17;75.62
34065;BME280;20339;49.754;20.158;2023-08-20T05:42:12;97142.79;;;25.55;74.92
34065;BME280;20339;49.754;20.158;2023-08-20T05:44:41;97145.63;;;25.84;73.86
34065;BME280;20339;49.754;20.158;2023-08-20T05:47:10;97148.27;;;25.99;73.21
34065;BME280;20339;49.754;20.158;2023-08-20T05:49:39;97145.98;;;26.18;72.78
34065;BME280;20339;49.754;20.158;2023-08-20T05:52:07;97143.23;;;26.37;72.11
34065;BME280;20339;49.754;20.158;2023-08-20T05:54:36;97145.22;;;26.50;71.51
34065;BME280;20339;49.754;20.158;2023-08-20T05:57:05;97150.09;;;26.61;71.16
34065;BME280;20339;49.754;20.158;2023-08-20T05:59:33;97147.96;;;26.79;70.68
34065;BME280;20339;49.754;20.158;2023-08-20T06:02:03;97150.75;;;26.71;69.78
34065;BME280;20339;49.754;20.158;2023-08-20T06:04:32;97155.83;;;26.67;69.94
34065;BME280;20339;49.754;20.158;2023-08-20T06:07:00;97153.30;;;26.70;69.51
34065;BME280;20339;49.754;20.158;2023-08-20T06:09:28;97154.61;;;26.63;69.18
34065;BME280;20339;49.754;20.158;2023-08-20T06:11:57;97154.40;;;26.63;68.79
34065;BME280;20339;49.754;20.158;2023-08-20T06:14:26;97155.36;;;26.44;68.62
34065;BME280;20339;49.754;20.158;2023-08-20T06:16:54;97157.73;;;26.52;68.93
34065;BME280;20339;49.754;20.158;2023-08-20T06:19:24;97157.66;;;26.70;68.94
34065;BME280;20339;49.754;20.158;2023-08-20T06:21:53;97158.41;;;26.75;68.08
34065;BME280;20339;49.754;20.158;2023-08-20T06:24:21;97161.64;;;26.61;67.69
34065;BME280;20339;49.754;20.158;2023-08-20T06:26:50;97167.20;;;26.57;68.00
34065;BME280;20339;49.754;20.158;2023-08-20T06:29:19;97163.53;;;26.62;68.11
34065;BME280;20339;49.754;20.158;2023-08-20T06:31:48;97167.71;;;26.78;67.97
34065;BME280;20339;49.754;20.158;2023-08-20T06:34:17;97167.19;;;26.87;68.03
34065;BME280;20339;49.754;20.158;2023-08-20T06:36:44;97171.64;;;26.96;67.91
34065;BME280;20339;49.754;20.158;2023-08-20T06:39:13;97174.04;;;27.06;67.76
34065;BME280;20339;49.754;20.158;2023-08-20T06:41:43;97172.27;;;27.15;67.72
34065;BME280;20339;49.754;20.158;2023-08-20T06:44:12;97174.84;;;27.30;67.62
34065;BME280;20339;49.754;20.158;2023-08-20T06:46:41;97173.50;;;27.44;67.38
34065;BME280;20339;49.754;20.158;2023-08-20T06:49:10;97175.11;;;27.49;66.83
34065;BME280;20339;49.754;20.158;2023-08-20T06:51:38;97181.45;;;27.46;66.60
34065;BME280;20339;49.754;20.158;2023-08-20T06:54:07;97177.08;;;27.29;66.38
34065;BME280;20339;49.754;20.158;2023-08-20T06:56:35;97179.58;;;27.20;66.86
34065;BME280;20339;49.754;20.158;2023-08-20T06:59:04;97178.09;;;27.28;67.08
34065;BME280;20339;49.754;20.158;2023-08-20T07:01:33;97177.50;;;27.39;66.94
34065;BME280;20339;49.754;20.158;2023-08-20T07:04:01;97177.67;;;27.42;66.84
34065;BME280;20339;49.754;20.158;2023-08-20T07:06:30;97182.15;;;27.45;66.88
34065;BME280;20339;49.754;20.158;2023-08-20T07:08:59;97180.92;;;27.47;66.61
34065;BME280;20339;49.754;20.158;2023-08-20T07:11:28;97184.64;;;27.61;66.97
34065;BME280;20339;49.754;20.158;2023-08-20T07:13:56;97180.48;;;27.72;66.95
34065;BME280;20339;49.754;20.158;2023-08-20T07:16:25;97184.91;;;27.82;66.58
34065;BME280;20339;49.754;20.158;2023-08-20T07:18:53;97183.14;;;27.91;66.34
34065;BME280;20339;49.754;20.158;2023-08-20T07:21:21;97191.17;;;28.05;66.43
34065;BME280;20339;49.754;20.158;2023-08-20T07:23:50;97187.39;;;28.20;66.22
34065;BME280;20339;49.754;20.158;2023-08-20T07:26:19;97193.11;;;28.32;66.20
34065;BME280;20339;49.754;20.158;2023-08-20T07:28:47;97195.02;;;28.42;65.94
34065;BME280;20339;49.754;20.158;2023-08-20T07:31:25;97198.92;;;28.42;65.84
34065;BME280;20339;49.754;20.158;2023-08-20T07:33:54;97201.39;;;28.49;65.73
34065;BME280;20339;49.754;20.158;2023-08-20T07:36:24;97204.17;;;28.57;65.68
34065;BME280;20339;49.754;20.158;2023-08-20T07:38:54;97202.21;;;28.57;65.09
34065;BME280;20339;49.754;20.158;2023-08-20T07:41:21;97204.84;;;28.52;65.17
34065;BME280;20339;49.754;20.158;2023-08-20T07:43:50;97200.55;;;28.56;64.83
34065;BME280;20339;49.754;20.158;2023-08-20T07:46:20;97203.96;;;28.48;64.61
34065;BME280;20339;49.754;20.158;2023-08-20T07:48:47;97203.60;;;28.43;64.48
34065;BME280;20339;49.754;20.158;2023-08-20T07:51:16;97201.41;;;28.42;64.25
34065;BME280;20339;49.754;20.158;2023-08-20T07:53:44;97199.42;;;28.45;64.31
34065;BME280;20339;49.754;20.158;2023-08-20T07:56:12;97200.45;;;28.48;64.33
34065;BME280;20339;49.754;20.158;2023-08-20T07:58:43;97201.04;;;28.43;64.16
34065;BME280;20339;49.754;20.158;2023-08-20T08:01:12;97203.38;;;28.43;64.26
34065;BME280;20339;49.754;20.158;2023-08-20T08:03:42;97203.34;;;28.48;64.33
34065;BME280;20339;49.754;20.158;2023-08-20T08:06:10;97202.23;;;28.59;64.21
34065;BME280;20339;49.754;20.158;2023-08-20T08:08:42;97201.16;;;28.65;63.93
34065;BME280;20339;49.754;20.158;2023-08-20T08:11:12;97203.40;;;28.75;64.06
34065;BME280;20339;49.754;20.158;2023-08-20T08:13:40;97198.28;;;28.83;63.76
34065;BME280;20339;49.754;20.158;2023-08-20T08:16:09;97199.05;;;28.89;63.68
34065;BME280;20339;49.754;20.158;2023-08-20T08:18:37;97197.66;;;28.92;63.92
34065;BME280;20339;49.754;20.158;2023-08-20T08:21:07;97199.25;;;29.02;63.97
34065;BME280;20339;49.754;20.158;2023-08-20T08:23:36;97196.34;;;29.20;64.26
34065;BME280;20339;49.754;20.158;2023-08-20T08:26:04;97196.30;;;29.33;63.86
34065;BME280;20339;49.754;20.158;2023-08-20T08:28:33;97195.70;;;29.42;63.40
34065;BME280;20339;49.754;20.158;2023-08-20T08:31:02;97193.60;;;29.43;62.88
34065;BME280;20339;49.754;20.158;2023-08-20T08:33:31;97187.48;;;29.40;62.68
34065;BME280;20339;49.754;20.158;2023-08-20T08:36:02;97190.30;;;29.41;62.33
34065;BME280;20339;49.754;20.158;2023-08-20T08:38:31;97187.14;;;29.46;62.39
34065;BME280;20339;49.754;20.158;2023-08-20T08:41:03;97185.83;;;29.54;62.15
34065;BME280;20339;49.754;20.158;2023-08-20T08:43:35;97193.23;;;29.48;61.89
34065;BME280;20339;49.754;20.158;2023-08-20T08:46:07;97189.58;;;29.30;61.29
34065;BME280;20339;49.754;20.158;2023-08-20T08:48:36;97191.59;;;28.97;61.48
34065;BME280;20339;49.754;20.158;2023-08-20T08:51:05;97191.64;;;28.88;62.16
34065;BME280;20339;49.754;20.158;2023-08-20T08:53:33;97192.13;;;28.98;62.49
34065;BME280;20339;49.754;20.158;2023-08-20T08:56:03;97195.64;;;28.94;61.39
34065;BME280;20339;49.754;20.158;2023-08-20T08:58:33;97197.73;;;28.84;61.46
34065;BME280;20339;49.754;20.158;2023-08-20T09:01:04;97201.00;;;28.79;60.96
34065;BME280;20339;49.754;20.158;2023-08-20T09:03:33;97200.20;;;28.60;60.19
34065;BME280;20339;49.754;20.158;2023-08-20T09:06:07;97202.73;;;28.53;60.40
34065;BME280;20339;49.754;20.158;2023-08-20T09:08:36;97203.52;;;28.53;60.32
34065;BME280;20339;49.754;20.158;2023-08-20T09:11:08;97204.40;;;28.43;59.52
34065;BME280;20339;49.754;20.158;2023-08-20T09:13:38;97203.36;;;28.20;59.45
34065;BME280;20339;49.754;20.158;2023-08-20T09:16:07;97201.02;;;28.10;60.30
34065;BME280;20339;49.754;20.158;2023-08-20T09:18:42;97201.89;;;28.31;61.57
34065;BME280;20339;49.754;20.158;2023-08-20T09:21:13;97204.84;;;28.68;62.25
34065;BME280;20339;49.754;20.158;2023-08-20T09:23:46;97203.12;;;28.92;62.33
34065;BME280;20339;49.754;20.158;2023-08-20T09:26:15;97205.80;;;28.86;61.63
34065;BME280;20339;49.754;20.158;2023-08-20T09:28:46;97206.52;;;28.73;61.50
34065;BME280;20339;49.754;20.158;2023-08-20T09:31:16;97206.50;;;28.57;61.12
34065;BME280;20339;49.754;20.158;2023-08-20T09:33:52;97210.17;;;28.58;61.21
34065;BME280;20339;49.754;20.158;2023-08-20T09:36:30;97208.83;;;28.56;61.25
34065;BME280;20339;49.754;20.158;2023-08-20T09:39:03;97211.88;;;28.72;62.10
34065;BME280;20339;49.754;20.158;2023-08-20T09:41:35;97207.98;;;28.86;61.03
34065;BME280;20339;49.754;20.158;2023-08-20T09:44:06;97210.17;;;28.59;59.66
34065;BME280;20339;49.754;20.158;2023-08-20T09:46:36;97208.91;;;28.44;60.30
34065;BME280;20339;49.754;20.158;2023-08-20T09:49:05;97203.54;;;28.31;60.64
34065;BME280;20339;49.754;20.158;2023-08-20T09:51:37;97206.00;;;28.18;61.21
34065;BME280;20339;49.754;20.158;2023-08-20T09:54:12;97202.31;;;28.16;62.08
34065;BME280;20339;49.754;20.158;2023-08-20T09:56:44;97197.06;;;28.24;62.20
34065;BME280;20339;49.754;20.158;2023-08-20T09:59:15;97198.30;;;28.20;62.53
34065;BME280;20339;49.754;20.158;2023-08-20T10:01:45;97197.79;;;28.04;61.93
34065;BME280;20339;49.754;20.158;2023-08-20T10:04:19;97199.54;;;28.10;62.70
34065;BME280;20339;49.754;20.158;2023-08-20T10:06:51;97195.63;;;28.27;63.37
34065;BME280;20339;49.754;20.158;2023-08-20T10:09:22;97196.36;;;28.42;63.33
34065;BME280;20339;49.754;20.158;2023-08-20T10:11:51;97196.30;;;28.44;62.75
34065;BME280;20339;49.754;20.158;2023-08-20T10:14:19;97195.70;;;28.48;62.33
34065;BME280;20339;49.754;20.158;2023-08-20T10:16:48;97192.40;;;28.58;62.31
34065;BME280;20339;49.754;20.158;2023-08-20T10:19:17;97191.90;;;28.53;61.59
34065;BME280;20339;49.754;20.158;2023-08-20T10:21:45;97186.61;;;28.40;61.64
34065;BME280;20339;49.754;20.158;2023-08-20T10:24:19;97191.47;;;28.30;62.27
34065;BME280;20339;49.754;20.158;2023-08-20T10:27:08;97189.38;;;28.26;62.59
34065;BME280;20339;49.754;20.158;2023-08-20T10:29:38;97186.54;;;28.41;62.73
34065;BME280;20339;49.754;20.158;2023-08-20T10:32:12;97185.66;;;28.52;62.89
34065;BME280;20339;49.754;20.158;2023-08-20T10:34:50;97187.29;;;28.64;62.54
34065;BME280;20339;49.754;20.158;2023-08-20T10:37:29;97185.51;;;28.51;61.45
34065;BME280;20339;49.754;20.158;2023-08-20T10:39:59;97183.38;;;28.46;61.78
34065;BME280;20339;49.754;20.158;2023-08-20T10:42:31;97178.54;;;28.44;62.10
34065;BME280;20339;49.754;20.158;2023-08-20T10:45:04;97176.99;;;28.48;62.00
34065;BME280;20339;49.754;20.158;2023-08-20T10:47:42;97174.70;;;28.57;62.05
34065;BME280;20339;49.754;20.158;2023-08-20T10:50:15;97172.79;;;28.62;61.67
34065;BME280;20339;49.754;20.158;2023-08-20T10:52:49;97167.55;;;28.58;61.14
34065;BME280;20339;49.754;20.158;2023-08-20T10:55:23;97171.35;;;28.58;60.72
34065;BME280;20339;49.754;20.158;2023-08-20T10:57:56;97171.55;;;28.67;60.90
34065;BME280;20339;49.754;20.158;2023-08-20T11:00:33;97171.48;;;28.67;60.51
34065;BME280;20339;49.754;20.158;2023-08-20T11:03:02;97167.21;;;28.56;60.51
34065;BME280;20339;49.754;20.158;2023-08-20T11:05:33;97163.73;;;28.34;60.25
34065;BME280;20339;49.754;20.158;2023-08-20T11:08:03;97162.22;;;28.28;61.50
34065;BME280;20339;49.754;20.158;2023-08-20T11:10:36;97162.91;;;28.38;61.18
34065;BME280;20339;49.754;20.158;2023-08-20T11:13:07;97166.02;;;28.34;60.98
34065;BME280;20339;49.754;20.158;2023-08-20T11:15:37;97165.06;;;28.24;60.55
34065;BME280;20339;49.754;20.158;2023-08-20T11:18:07;97159.73;;;28.20;61.54
34065;BME280;20339;49.754;20.158;2023-08-20T11:20:36;97154.89;;;28.17;61.40
34065;BME280;20339;49.754;20.158;2023-08-20T11:23:06;97149.85;;;28.12;61.61
34065;BME280;20339;49.754;20.158;2023-08-20T11:25:36;97150.13;;;28.17;62.13
34065;BME280;20339;49.754;20.158;2023-08-20T11:28:09;97149.63;;;28.32;62.35
34065;BME280;20339;49.754;20.158;2023-08-20T11:30:38;97147.13;;;28.46;61.85
34065;BME280;20339;49.754;20.158;2023-08-20T11:33:06;97144.20;;;28.51;60.94
34065;BME280;20339;49.754;20.158;2023-08-20T11:35:36;97152.14;;;28.49;60.67
34065;BME280;20339;49.754;20.158;2023-08-20T11:38:07;97148.23;;;28.64;60.57
34065;BME280;20339;49.754;20.158;2023-08-20T11:40:38;97138.55;;;28.80;61.06
34065;BME280;20339;49.754;20.158;2023-08-20T11:43:07;97140.40;;;28.88;59.92
34065;BME280;20339;49.754;20.158;2023-08-20T11:45:48;97141.83;;;28.83;59.79
34065;BME280;20339;49.754;20.158;2023-08-20T11:48:19;97142.97;;;28.88;59.31
34065;BME280;20339;49.754;20.158;2023-08-20T11:50:50;97143.45;;;28.93;58.82
34065;BME280;20339;49.754;20.158;2023-08-20T11:53:22;97143.72;;;29.01;58.95
34065;BME280;20339;49.754;20.158;2023-08-20T11:55:51;97139.98;;;29.06;58.33
34065;BME280;20339;49.754;20.158;2023-08-20T11:58:20;97139.91;;;29.09;58.42
34065;BME280;20339;49.754;20.158;2023-08-20T12:00:51;97135.21;;;29.01;57.70
34065;BME280;20339;49.754;20.158;2023-08-20T12:03:22;97137.08;;;29.02;58.41
34065;BME280;20339;49.754;20.158;2023-08-20T12:05:51;97136.56;;;29.13;58.49
34065;BME280;20339;49.754;20.158;2023-08-20T12:08:20;97132.61;;;29.22;58.41
34065;BME280;20339;49.754;20.158;2023-08-20T12:10:49;97137.46;;;29.29;58.24
34065;BME280;20339;49.754;20.158;2023-08-20T12:13:18;97132.39;;;29.36;58.10
34065;BME280;20339;49.754;20.158;2023-08-20T12:15:47;97131.92;;;29.42;57.66
34065;BME280;20339;49.754;20.158;2023-08-20T12:18:17;97131.30;;;29.36;56.44
34065;BME280;20339;49.754;20.158;2023-08-20T12:20:46;97134.42;;;29.36;56.59
34065;BME280;20339;49.754;20.158;2023-08-20T12:23:13;97133.96;;;29.42;56.53
34065;BME280;20339;49.754;20.158;2023-08-20T12:25:42;97136.08;;;29.44;56.43
34065;BME280;20339;49.754;20.158;2023-08-20T12:28:22;97133.45;;;29.47;56.18
34065;BME280;20339;49.754;20.158;2023-08-20T12:30:53;97126.34;;;29.51;56.10
34065;BME280;20339;49.754;20.158;2023-08-20T12:33:25;97126.55;;;29.42;55.97
34065;BME280;20339;49.754;20.158;2023-08-20T12:35:54;97125.52;;;29.37;56.01
34065;BME280;20339;49.754;20.158;2023-08-20T12:38:24;97120.92;;;29.36;55.81
34065;BME280;20339;49.754;20.158;2023-08-20T12:40:52;97118.73;;;29.38;55.86
34065;BME280;20339;49.754;20.158;2023-08-20T12:43:21;97113.11;;;29.39;55.42
34065;BME280;20339;49.754;20.158;2023-08-20T12:45:48;97107.36;;;29.45;55.96
34065;BME280;20339;49.754;20.158;2023-08-20T12:48:17;97107.92;;;29.48;55.77
34065;BME280;20339;49.754;20.158;2023-08-20T12:50:45;97110.80;;;29.48;55.42
34065;BME280;20339;49.754;20.158;2023-08-20T12:53:14;97114.63;;;29.49;55.61
34065;BME280;20339;49.754;20.158;2023-08-20T12:55:43;97114.64;;;29.56;55.95
34065;BME280;20339;49.754;20.158;2023-08-20T12:58:13;97115.49;;;29.53;54.59
34065;BME280;20339;49.754;20.158;2023-08-20T13:00:44;97111.44;;;29.49;54.17
34065;BME280;20339;49.754;20.158;2023-08-20T13:03:13;97113.52;;;29.45;54.67
34065;BME280;20339;49.754;20.158;2023-08-20T13:05:44;97110.33;;;29.45;54.24